Ashburton Aerodrome


Codes: NZAS/ASG
Name: Ashburton Aerodrome
City:
Country: New Zealand
Elevation: 302 ft.
Wikipedia:

Photos at Ashburton Aerodrome


   Photos courtesy of SpottingLog. You can add your own sightings and photos by signing up for a free trial today.



No photos found.

Weather at Ashburton Aerodrome


Time (UTC)DescriptionTempratureWindCloud coverageVisibilityPressureHumidity
19-Apr-2024 06:00Overcast Clouds16°C11 mph, S97%10000m1011hPa46%
19-Apr-2024 09:00Broken Clouds12°C4 mph, SW83%10000m1015hPa72%
19-Apr-2024 12:00Light Rain10°C2 mph, SW88%10000m1018hPa93%
19-Apr-2024 15:00Overcast Clouds10°C2 mph, E99%10000m1017hPa93%
19-Apr-2024 18:00Light Rain9°C4 mph, NE91%10000m1016hPa94%
19-Apr-2024 21:00Clear Sky10°C4 mph, N2%10000m1017hPa83%
20-Apr-2024 00:00Clear Sky16°C7 mph, NE2%10000m1015hPa56%
20-Apr-2024 03:00Clear Sky17°C7 mph, E0%10000m1013hPa46%
20-Apr-2024 06:00Clear Sky11°C7 mph, E0%10000m1013hPa82%
20-Apr-2024 09:00Few Clouds9°C7 mph, N14%10000m1014hPa95%
20-Apr-2024 12:00Clear Sky8°C7 mph, N9%10000m1013hPa87%
20-Apr-2024 15:00Scattered Clouds8°C4 mph, NW37%10000m1012hPa79%
20-Apr-2024 18:00Broken Clouds9°C4 mph, NW69%10000m1012hPa68%
20-Apr-2024 21:00Overcast Clouds12°C2 mph, NW100%10000m1013hPa54%
21-Apr-2024 00:00Overcast Clouds16°C7 mph, SE88%10000m1014hPa48%
21-Apr-2024 03:00Clear Sky17°C9 mph, E5%10000m1012hPa51%
21-Apr-2024 06:00Clear Sky11°C7 mph, E5%10000m1011hPa82%
21-Apr-2024 09:00Scattered Clouds9°C9 mph, NE28%10000m1012hPa95%
21-Apr-2024 12:00Broken Clouds9°C7 mph, NW65%10000m1011hPa72%
21-Apr-2024 15:00Scattered Clouds9°C7 mph, W42%10000m1012hPa69%
21-Apr-2024 18:00Few Clouds8°C7 mph, SW22%10000m1016hPa78%
21-Apr-2024 21:00Clear Sky12°C2 mph, SE0%10000m1020hPa70%
22-Apr-2024 00:00Clear Sky15°C7 mph, E6%10000m1021hPa55%
22-Apr-2024 03:00Clear Sky16°C9 mph, E1%10000m1019hPa48%
22-Apr-2024 06:00Clear Sky9°C9 mph, E1%10000m1019hPa74%
22-Apr-2024 09:00Clear Sky6°C9 mph, NE2%10000m1020hPa97%
22-Apr-2024 12:00Clear Sky6°C9 mph, NE2%10000m1019hPa96%
22-Apr-2024 15:00Clear Sky6°C7 mph, N6%10000m1019hPa86%
22-Apr-2024 18:00Clear Sky5°C7 mph, N7%10000m1019hPa70%
22-Apr-2024 21:00Clear Sky10°C2 mph, NW8%10000m1020hPa56%
23-Apr-2024 00:00Few Clouds18°C2 mph, E18%10000m1019hPa30%
23-Apr-2024 03:00Overcast Clouds18°C7 mph, E97%10000m1017hPa36%
23-Apr-2024 06:00Overcast Clouds11°C7 mph, NE98%10000m1016hPa61%
23-Apr-2024 09:00Broken Clouds9°C9 mph, NW79%10000m1017hPa65%
23-Apr-2024 12:00Scattered Clouds8°C9 mph, NW41%10000m1017hPa69%
23-Apr-2024 15:00Clear Sky7°C7 mph, NW3%10000m1018hPa75%
23-Apr-2024 18:00Clear Sky7°C4 mph, NW2%10000m1020hPa78%
23-Apr-2024 21:00Clear Sky12°C4 mph, N2%10000m1022hPa60%
24-Apr-2024 00:00Clear Sky19°C7 mph, NE3%10000m1021hPa38%
24-Apr-2024 03:00Clear Sky21°C13 mph, NE0%10000m1019hPa32%